sensor_id;sensor_type;location;lat;lon;timestamp;P1;durP1;ratioP1;P2;durP2;ratioP2
33184;SDS011;19550;42.872;25.494;2023-11-22T00:01:15;26.17;;;15.25;;
33184;SDS011;19550;42.872;25.494;2023-11-22T00:03:42;31.55;;;19.65;;
33184;SDS011;19550;42.872;25.494;2023-11-22T00:06:09;34.67;;;23.08;;
33184;SDS011;19550;42.872;25.494;2023-11-22T00:08:37;19.35;;;11.85;;
33184;SDS011;19550;42.872;25.494;2023-11-22T00:11:04;11.35;;;7.35;;
33184;SDS011;19550;42.872;25.494;2023-11-22T00:13:30;16.25;;;11.02;;
33184;SDS011;19550;42.872;25.494;2023-11-22T00:15:59;26.05;;;15.38;;
33184;SDS011;19550;42.872;25.494;2023-11-22T00:18:26;17.17;;;11.00;;
33184;SDS011;19550;42.872;25.494;2023-11-22T00:20:53;24.65;;;15.65;;
33184;SDS011;19550;42.872;25.494;2023-11-22T00:23:20;20.48;;;14.27;;
33184;SDS011;19550;42.872;25.494;2023-11-22T00:25:52;15.65;;;11.75;;
33184;SDS011;19550;42.872;25.494;2023-11-22T00:28:19;26.75;;;15.65;;
33184;SDS011;19550;42.872;25.494;2023-11-22T00:30:47;17.17;;;12.05;;
33184;SDS011;19550;42.872;25.494;2023-11-22T00:33:16;20.67;;;12.65;;
33184;SDS011;19550;42.872;25.494;2023-11-22T00:35:43;15.68;;;11.45;;
33184;SDS011;19550;42.872;25.494;2023-11-22T00:38:10;16.02;;;11.43;;
33184;SDS011;19550;42.872;25.494;2023-11-22T00:40:37;24.15;;;13.25;;
33184;SDS011;19550;42.872;25.494;2023-11-22T00:43:04;28.90;;;16.52;;
33184;SDS011;19550;42.872;25.494;2023-11-22T00:45:30;28.23;;;16.63;;
33184;SDS011;19550;42.872;25.494;2023-11-22T00:47:58;21.85;;;14.75;;
33184;SDS011;19550;42.872;25.494;2023-11-22T00:50:27;15.40;;;11.18;;
33184;SDS011;19550;42.872;25.494;2023-11-22T00:52:53;19.58;;;11.30;;
33184;SDS011;19550;42.872;25.494;2023-11-22T00:55:20;21.95;;;8.73;;
33184;SDS011;19550;42.872;25.494;2023-11-22T00:57:47;21.08;;;12.40;;
33184;SDS011;19550;42.872;25.494;2023-11-22T01:00:14;33.63;;;19.98;;
33184;SDS011;19550;42.872;25.494;2023-11-22T01:02:42;43.75;;;27.08;;
33184;SDS011;19550;42.872;25.494;2023-11-22T01:05:09;52.63;;;30.33;;
33184;SDS011;19550;42.872;25.494;2023-11-22T01:07:38;37.17;;;23.05;;
33184;SDS011;19550;42.872;25.494;2023-11-22T01:10:06;35.03;;;21.23;;
33184;SDS011;19550;42.872;25.494;2023-11-22T01:12:33;33.47;;;20.30;;
33184;SDS011;19550;42.872;25.494;2023-11-22T01:15:00;33.17;;;20.70;;
33184;SDS011;19550;42.872;25.494;2023-11-22T01:17:27;43.40;;;23.10;;
33184;SDS011;19550;42.872;25.494;2023-11-22T01:19:54;52.30;;;28.63;;
33184;SDS011;19550;42.872;25.494;2023-11-22T01:22:21;39.63;;;24.58;;
33184;SDS011;19550;42.872;25.494;2023-11-22T01:24:49;43.67;;;22.02;;
33184;SDS011;19550;42.872;25.494;2023-11-22T01:27:16;42.42;;;24.67;;
33184;SDS011;19550;42.872;25.494;2023-11-22T01:29:42;37.75;;;22.80;;
33184;SDS011;19550;42.872;25.494;2023-11-22T01:32:09;35.47;;;21.75;;
33184;SDS011;19550;42.872;25.494;2023-11-22T01:34:36;36.58;;;20.02;;
33184;SDS011;19550;42.872;25.494;2023-11-22T01:37:03;35.60;;;19.67;;
33184;SDS011;19550;42.872;25.494;2023-11-22T01:39:30;28.23;;;19.05;;
33184;SDS011;19550;42.872;25.494;2023-11-22T01:41:59;31.98;;;19.58;;
33184;SDS011;19550;42.872;25.494;2023-11-22T01:44:26;31.55;;;17.63;;
33184;SDS011;19550;42.872;25.494;2023-11-22T01:46:53;32.97;;;19.55;;
33184;SDS011;19550;42.872;25.494;2023-11-22T01:49:20;29.02;;;19.13;;
33184;SDS011;19550;42.872;25.494;2023-11-22T01:51:49;33.33;;;18.95;;
33184;SDS011;19550;42.872;25.494;2023-11-22T01:54:16;25.45;;;16.17;;
33184;SDS011;19550;42.872;25.494;2023-11-22T01:56:46;27.40;;;17.17;;
33184;SDS011;19550;42.872;25.494;2023-11-22T01:59:14;26.50;;;16.10;;
33184;SDS011;19550;42.872;25.494;2023-11-22T02:01:41;28.70;;;17.40;;
33184;SDS011;19550;42.872;25.494;2023-11-22T02:04:09;25.58;;;17.23;;
33184;SDS011;19550;42.872;25.494;2023-11-22T02:09:06;24.55;;;15.38;;
33184;SDS011;19550;42.872;25.494;2023-11-22T02:11:38;24.55;;;15.07;;
33184;SDS011;19550;42.872;25.494;2023-11-22T02:14:07;25.17;;;16.40;;
33184;SDS011;19550;42.872;25.494;2023-11-22T02:16:35;23.05;;;15.43;;
33184;SDS011;19550;42.872;25.494;2023-11-22T02:19:04;26.20;;;17.25;;
33184;SDS011;19550;42.872;25.494;2023-11-22T02:21:32;23.52;;;15.90;;
33184;SDS011;19550;42.872;25.494;2023-11-22T02:24:00;26.13;;;15.90;;
33184;SDS011;19550;42.872;25.494;2023-11-22T02:26:28;27.98;;;15.85;;
33184;SDS011;19550;42.872;25.494;2023-11-22T02:28:56;26.15;;;16.17;;
33184;SDS011;19550;42.872;25.494;2023-11-22T02:31:24;22.75;;;14.07;;
33184;SDS011;19550;42.872;25.494;2023-11-22T02:33:52;24.70;;;14.27;;
33184;SDS011;19550;42.872;25.494;2023-11-22T02:36:20;18.55;;;13.10;;
33184;SDS011;19550;42.872;25.494;2023-11-22T02:38:47;56.78;;;32.40;;
33184;SDS011;19550;42.872;25.494;2023-11-22T02:41:17;36.55;;;21.15;;
33184;SDS011;19550;42.872;25.494;2023-11-22T02:43:44;54.53;;;29.17;;
33184;SDS011;19550;42.872;25.494;2023-11-22T02:46:11;27.27;;;16.98;;
33184;SDS011;19550;42.872;25.494;2023-11-22T02:48:39;21.38;;;13.90;;
33184;SDS011;19550;42.872;25.494;2023-11-22T02:51:06;19.13;;;12.63;;
33184;SDS011;19550;42.872;25.494;2023-11-22T02:53:33;15.95;;;10.55;;
33184;SDS011;19550;42.872;25.494;2023-11-22T02:56:00;17.80;;;12.10;;
33184;SDS011;19550;42.872;25.494;2023-11-22T02:58:28;53.35;;;29.67;;
33184;SDS011;19550;42.872;25.494;2023-11-22T03:00:56;62.63;;;34.22;;
33184;SDS011;19550;42.872;25.494;2023-11-22T03:03:23;25.85;;;15.98;;
33184;SDS011;19550;42.872;25.494;2023-11-22T03:05:50;29.45;;;18.17;;
33184;SDS011;19550;42.872;25.494;2023-11-22T03:08:17;40.38;;;21.45;;
33184;SDS011;19550;42.872;25.494;2023-11-22T03:10:43;18.88;;;11.10;;
33184;SDS011;19550;42.872;25.494;2023-11-22T03:13:11;47.78;;;27.77;;
33184;SDS011;19550;42.872;25.494;2023-11-22T03:15:39;36.28;;;19.00;;
33184;SDS011;19550;42.872;25.494;2023-11-22T03:18:07;46.35;;;24.65;;
33184;SDS011;19550;42.872;25.494;2023-11-22T03:20:36;30.38;;;16.23;;
33184;SDS011;19550;42.872;25.494;2023-11-22T03:23:03;21.83;;;13.93;;
33184;SDS011;19550;42.872;25.494;2023-11-22T03:25:30;30.58;;;17.13;;
33184;SDS011;19550;42.872;25.494;2023-11-22T03:27:57;56.50;;;28.92;;
33184;SDS011;19550;42.872;25.494;2023-11-22T03:30:24;36.65;;;21.30;;
33184;SDS011;19550;42.872;25.494;2023-11-22T03:32:52;41.50;;;22.80;;
33184;SDS011;19550;42.872;25.494;2023-11-22T03:35:19;29.48;;;16.02;;
33184;SDS011;19550;42.872;25.494;2023-11-22T03:37:46;36.58;;;21.33;;
33184;SDS011;19550;42.872;25.494;2023-11-22T03:40:13;39.47;;;22.13;;
33184;SDS011;19550;42.872;25.494;2023-11-22T03:42:40;36.40;;;20.50;;
33184;SDS011;19550;42.872;25.494;2023-11-22T03:45:08;43.03;;;22.85;;
33184;SDS011;19550;42.872;25.494;2023-11-22T03:47:35;35.88;;;20.75;;
33184;SDS011;19550;42.872;25.494;2023-11-22T03:50:05;38.20;;;22.77;;
33184;SDS011;19550;42.872;25.494;2023-11-22T03:52:33;36.10;;;21.67;;
33184;SDS011;19550;42.872;25.494;2023-11-22T03:55:00;42.85;;;25.63;;
33184;SDS011;19550;42.872;25.494;2023-11-22T03:57:27;64.97;;;35.35;;
33184;SDS011;19550;42.872;25.494;2023-11-22T03:59:54;45.50;;;25.15;;
33184;SDS011;19550;42.872;25.494;2023-11-22T04:02:21;41.67;;;23.30;;
33184;SDS011;19550;42.872;25.494;2023-11-22T04:04:48;38.78;;;19.92;;
33184;SDS011;19550;42.872;25.494;2023-11-22T04:07:16;31.48;;;19.88;;
33184;SDS011;19550;42.872;25.494;2023-11-22T04:09:44;33.33;;;19.40;;
33184;SDS011;19550;42.872;25.494;2023-11-22T04:12:11;32.25;;;18.23;;
33184;SDS011;19550;42.872;25.494;2023-11-22T04:14:37;33.15;;;17.95;;
33184;SDS011;19550;42.872;25.494;2023-11-22T04:17:04;34.22;;;17.90;;
33184;SDS011;19550;42.872;25.494;2023-11-22T04:19:31;23.77;;;15.52;;
33184;SDS011;19550;42.872;25.494;2023-11-22T04:21:58;27.15;;;15.85;;
33184;SDS011;19550;42.872;25.494;2023-11-22T04:24:26;25.08;;;15.88;;
33184;SDS011;19550;42.872;25.494;2023-11-22T04:26:54;26.50;;;15.35;;
33184;SDS011;19550;42.872;25.494;2023-11-22T04:29:27;22.58;;;14.65;;
33184;SDS011;19550;42.872;25.494;2023-11-22T04:31:59;27.67;;;16.40;;
33184;SDS011;19550;42.872;25.494;2023-11-22T04:34:26;54.00;;;25.48;;
33184;SDS011;19550;42.872;25.494;2023-11-22T04:36:56;24.30;;;14.10;;
33184;SDS011;19550;42.872;25.494;2023-11-22T04:39:23;22.42;;;13.27;;
33184;SDS011;19550;42.872;25.494;2023-11-22T04:41:55;24.73;;;13.63;;
33184;SDS011;19550;42.872;25.494;2023-11-22T04:44:25;25.33;;;14.45;;
33184;SDS011;19550;42.872;25.494;2023-11-22T04:46:53;39.22;;;22.63;;
33184;SDS011;19550;42.872;25.494;2023-11-22T04:49:21;45.97;;;24.05;;
33184;SDS011;19550;42.872;25.494;2023-11-22T04:51:50;39.58;;;22.67;;
33184;SDS011;19550;42.872;25.494;2023-11-22T04:54:22;65.45;;;36.97;;
33184;SDS011;19550;42.872;25.494;2023-11-22T04:57:00;66.35;;;38.05;;
33184;SDS011;19550;42.872;25.494;2023-11-22T04:59:27;66.97;;;37.80;;
33184;SDS011;19550;42.872;25.494;2023-11-22T05:01:55;69.43;;;38.03;;
33184;SDS011;19550;42.872;25.494;2023-11-22T05:04:24;64.90;;;36.90;;
33184;SDS011;19550;42.872;25.494;2023-11-22T05:06:53;69.57;;;36.05;;
33184;SDS011;19550;42.872;25.494;2023-11-22T05:09:22;67.63;;;35.17;;
33184;SDS011;19550;42.872;25.494;2023-11-22T05:12:01;67.63;;;35.85;;
33184;SDS011;19550;42.872;25.494;2023-11-22T05:14:35;66.68;;;35.22;;
33184;SDS011;19550;42.872;25.494;2023-11-22T05:17:14;75.32;;;39.90;;
33184;SDS011;19550;42.872;25.494;2023-11-22T05:19:42;87.93;;;48.28;;
33184;SDS011;19550;42.872;25.494;2023-11-22T05:22:12;92.15;;;51.67;;
33184;SDS011;19550;42.872;25.494;2023-11-22T05:24:42;72.05;;;42.03;;
33184;SDS011;19550;42.872;25.494;2023-11-22T05:27:11;86.60;;;50.13;;
33184;SDS011;19550;42.872;25.494;2023-11-22T05:29:39;101.33;;;57.63;;
33184;SDS011;19550;42.872;25.494;2023-11-22T05:32:19;94.72;;;59.15;;
33184;SDS011;19550;42.872;25.494;2023-11-22T05:34:46;63.75;;;37.88;;
33184;SDS011;19550;42.872;25.494;2023-11-22T05:37:14;70.47;;;43.50;;
33184;SDS011;19550;42.872;25.494;2023-11-22T05:39:42;79.70;;;55.17;;
33184;SDS011;19550;42.872;25.494;2023-11-22T05:42:11;76.57;;;47.17;;
33184;SDS011;19550;42.872;25.494;2023-11-22T05:44:38;78.45;;;47.70;;
33184;SDS011;19550;42.872;25.494;2023-11-22T05:47:05;56.90;;;35.20;;
33184;SDS011;19550;42.872;25.494;2023-11-22T05:49:34;59.47;;;32.63;;
33184;SDS011;19550;42.872;25.494;2023-11-22T05:52:04;63.17;;;38.50;;
33184;SDS011;19550;42.872;25.494;2023-11-22T05:54:31;65.45;;;39.85;;
33184;SDS011;19550;42.872;25.494;2023-11-22T05:56:59;51.55;;;31.90;;
33184;SDS011;19550;42.872;25.494;2023-11-22T05:59:28;46.17;;;29.95;;
33184;SDS011;19550;42.872;25.494;2023-11-22T06:01:56;59.17;;;30.40;;
33184;SDS011;19550;42.872;25.494;2023-11-22T06:04:24;49.17;;;29.23;;
33184;SDS011;19550;42.872;25.494;2023-11-22T06:06:51;48.63;;;28.48;;
33184;SDS011;19550;42.872;25.494;2023-11-22T06:09:18;50.78;;;29.52;;
33184;SDS011;19550;42.872;25.494;2023-11-22T06:11:45;59.15;;;34.63;;
33184;SDS011;19550;42.872;25.494;2023-11-22T06:14:13;51.40;;;30.73;;
33184;SDS011;19550;42.872;25.494;2023-11-22T06:16:42;53.30;;;30.98;;
33184;SDS011;19550;42.872;25.494;2023-11-22T06:19:10;98.70;;;56.67;;
33184;SDS011;19550;42.872;25.494;2023-11-22T06:21:37;93.22;;;55.58;;
33184;SDS011;19550;42.872;25.494;2023-11-22T06:24:04;78.20;;;47.85;;
33184;SDS011;19550;42.872;25.494;2023-11-22T06:26:34;69.85;;;41.45;;
33184;SDS011;19550;42.872;25.494;2023-11-22T06:29:02;58.80;;;35.35;;
33184;SDS011;19550;42.872;25.494;2023-11-22T06:31:29;59.63;;;36.85;;
33184;SDS011;19550;42.872;25.494;2023-11-22T06:34:01;70.25;;;42.03;;
33184;SDS011;19550;42.872;25.494;2023-11-22T06:36:28;113.55;;;69.82;;
33184;SDS011;19550;42.872;25.494;2023-11-22T06:38:55;114.47;;;68.70;;
33184;SDS011;19550;42.872;25.494;2023-11-22T06:41:23;100.25;;;63.53;;
33184;SDS011;19550;42.872;25.494;2023-11-22T06:44:09;95.93;;;59.13;;
33184;SDS011;19550;42.872;25.494;2023-11-22T06:46:38;95.82;;;56.20;;
33184;SDS011;19550;42.872;25.494;2023-11-22T06:49:19;88.38;;;56.55;;
33184;SDS011;19550;42.872;25.494;2023-11-22T06:51:59;99.65;;;63.70;;
33184;SDS011;19550;42.872;25.494;2023-11-22T06:54:29;82.90;;;55.85;;
33184;SDS011;19550;42.872;25.494;2023-11-22T06:56:57;87.45;;;56.60;;
33184;SDS011;19550;42.872;25.494;2023-11-22T06:59:28;88.57;;;55.90;;
33184;SDS011;19550;42.872;25.494;2023-11-22T07:02:04;127.68;;;76.15;;
33184;SDS011;19550;42.872;25.494;2023-11-22T07:04:44;132.95;;;75.60;;
33184;SDS011;19550;42.872;25.494;2023-11-22T07:07:13;126.05;;;75.43;;
33184;SDS011;19550;42.872;25.494;2023-11-22T07:09:41;178.60;;;114.45;;
33184;SDS011;19550;42.872;25.494;2023-11-22T07:12:09;153.02;;;92.05;;
33184;SDS011;19550;42.872;25.494;2023-11-22T07:14:36;131.93;;;76.65;;
33184;SDS011;19550;42.872;25.494;2023-11-22T07:17:03;136.90;;;80.75;;
33184;SDS011;19550;42.872;25.494;2023-11-22T07:19:32;142.93;;;86.28;;
33184;SDS011;19550;42.872;25.494;2023-11-22T07:22:01;145.57;;;87.45;;
33184;SDS011;19550;42.872;25.494;2023-11-22T07:26:59;114.57;;;70.60;;
33184;SDS011;19550;42.872;25.494;2023-11-22T07:29:27;107.93;;;65.50;;
33184;SDS011;19550;42.872;25.494;2023-11-22T07:31:55;77.15;;;50.47;;
33184;SDS011;19550;42.872;25.494;2023-11-22T07:34:23;73.45;;;47.80;;
33184;SDS011;19550;42.872;25.494;2023-11-22T07:36:50;140.20;;;85.28;;
33184;SDS011;19550;42.872;25.494;2023-11-22T07:39:18;97.47;;;59.00;;
33184;SDS011;19550;42.872;25.494;2023-11-22T07:41:52;75.75;;;48.95;;
33184;SDS011;19550;42.872;25.494;2023-11-22T07:44:20;65.72;;;41.60;;
33184;SDS011;19550;42.872;25.494;2023-11-22T07:46:49;67.75;;;42.28;;
33184;SDS011;19550;42.872;25.494;2023-11-22T07:49:17;63.53;;;39.55;;
33184;SDS011;19550;42.872;25.494;2023-11-22T07:51:44;60.63;;;39.28;;
33184;SDS011;19550;42.872;25.494;2023-11-22T07:54:11;61.15;;;39.42;;
33184;SDS011;19550;42.872;25.494;2023-11-22T07:56:42;59.20;;;39.10;;
33184;SDS011;19550;42.872;25.494;2023-11-22T07:59:09;54.70;;;36.95;;
33184;SDS011;19550;42.872;25.494;2023-11-22T08:01:38;58.60;;;37.85;;
33184;SDS011;19550;42.872;25.494;2023-11-22T08:04:06;53.13;;;37.45;;
33184;SDS011;19550;42.872;25.494;2023-11-22T08:06:34;64.80;;;42.78;;
33184;SDS011;19550;42.872;25.494;2023-11-22T08:09:02;71.70;;;46.85;;
33184;SDS011;19550;42.872;25.494;2023-11-22T08:11:30;66.18;;;42.80;;
33184;SDS011;19550;42.872;25.494;2023-11-22T08:13:59;72.70;;;44.88;;
33184;SDS011;19550;42.872;25.494;2023-11-22T08:16:34;73.65;;;45.35;;
33184;SDS011;19550;42.872;25.494;2023-11-22T08:19:18;64.65;;;41.90;;
33184;SDS011;19550;42.872;25.494;2023-11-22T08:22:06;52.03;;;35.88;;
33184;SDS011;19550;42.872;25.494;2023-11-22T08:24:56;54.63;;;34.90;;
33184;SDS011;19550;42.872;25.494;2023-11-22T08:27:29;43.38;;;31.50;;
33184;SDS011;19550;42.872;25.494;2023-11-22T08:29:58;41.75;;;25.48;;
33184;SDS011;19550;42.872;25.494;2023-11-22T08:32:30;41.05;;;27.15;;
33184;SDS011;19550;42.872;25.494;2023-11-22T08:34:58;41.38;;;25.90;;
33184;SDS011;19550;42.872;25.494;2023-11-22T08:37:33;45.88;;;25.25;;
33184;SDS011;19550;42.872;25.494;2023-11-22T08:40:03;46.33;;;25.42;;
33184;SDS011;19550;42.872;25.494;2023-11-22T08:42:33;41.15;;;22.88;;
33184;SDS011;19550;42.872;25.494;2023-11-22T08:45:03;44.47;;;24.90;;
33184;SDS011;19550;42.872;25.494;2023-11-22T08:47:33;32.90;;;23.33;;
33184;SDS011;19550;42.872;25.494;2023-11-22T08:50:13;33.65;;;19.80;;
33184;SDS011;19550;42.872;25.494;2023-11-22T08:52:45;27.33;;;17.13;;
33184;SDS011;19550;42.872;25.494;2023-11-22T08:55:12;45.40;;;28.75;;
33184;SDS011;19550;42.872;25.494;2023-11-22T08:57:40;30.60;;;22.05;;
33184;SDS011;19550;42.872;25.494;2023-11-22T09:00:09;28.23;;;19.60;;
33184;SDS011;19550;42.872;25.494;2023-11-22T09:02:36;24.65;;;17.35;;
33184;SDS011;19550;42.872;25.494;2023-11-22T09:05:04;25.25;;;16.83;;
33184;SDS011;19550;42.872;25.494;2023-11-22T09:07:33;21.48;;;16.40;;
33184;SDS011;19550;42.872;25.494;2023-11-22T09:10:03;23.50;;;16.83;;
33184;SDS011;19550;42.872;25.494;2023-11-22T09:12:35;31.33;;;23.27;;
33184;SDS011;19550;42.872;25.494;2023-11-22T09:15:04;40.38;;;27.35;;
33184;SDS011;19550;42.872;25.494;2023-11-22T09:17:36;34.92;;;25.52;;
33184;SDS011;19550;42.872;25.494;2023-11-22T09:20:08;49.55;;;30.70;;
33184;SDS011;19550;42.872;25.494;2023-11-22T09:22:36;41.08;;;28.83;;
33184;SDS011;19550;42.872;25.494;2023-11-22T09:25:05;45.38;;;30.35;;
33184;SDS011;19550;42.872;25.494;2023-11-22T09:27:34;56.78;;;34.08;;
33184;SDS011;19550;42.872;25.494;2023-11-22T09:30:02;38.13;;;25.48;;
33184;SDS011;19550;42.872;25.494;2023-11-22T09:32:30;37.15;;;24.33;;
33184;SDS011;19550;42.872;25.494;2023-11-22T09:34:59;35.95;;;23.83;;
33184;SDS011;19550;42.872;25.494;2023-11-22T09:37:27;37.28;;;25.08;;
33184;SDS011;19550;42.872;25.494;2023-11-22T09:39:54;41.13;;;26.88;;
33184;SDS011;19550;42.872;25.494;2023-11-22T09:42:23;42.45;;;30.10;;
33184;SDS011;19550;42.872;25.494;2023-11-22T09:44:51;38.67;;;26.17;;
33184;SDS011;19550;42.872;25.494;2023-11-22T09:47:18;45.17;;;32.67;;
33184;SDS011;19550;42.872;25.494;2023-11-22T09:49:46;38.40;;;25.02;;
33184;SDS011;19550;42.872;25.494;2023-11-22T09:52:19;47.67;;;29.63;;
33184;SDS011;19550;42.872;25.494;2023-11-22T09:54:49;34.33;;;24.45;;
33184;SDS011;19550;42.872;25.494;2023-11-22T09:57:17;40.08;;;27.30;;
33184;SDS011;19550;42.872;25.494;2023-11-22T09:59:46;36.00;;;24.03;;
33184;SDS011;19550;42.872;25.494;2023-11-22T10:02:17;29.80;;;19.83;;
33184;SDS011;19550;42.872;25.494;2023-11-22T10:04:45;24.27;;;17.08;;
33184;SDS011;19550;42.872;25.494;2023-11-22T10:07:12;37.33;;;25.48;;
33184;SDS011;19550;42.872;25.494;2023-11-22T10:09:42;34.83;;;22.90;;
33184;SDS011;19550;42.872;25.494;2023-11-22T10:12:09;31.50;;;22.20;;
33184;SDS011;19550;42.872;25.494;2023-11-22T10:14:40;40.42;;;25.23;;
33184;SDS011;19550;42.872;25.494;2023-11-22T10:17:07;32.20;;;22.58;;
33184;SDS011;19550;42.872;25.494;2023-11-22T10:19:35;38.13;;;24.10;;
33184;SDS011;19550;42.872;25.494;2023-11-22T10:22:02;38.88;;;24.42;;
33184;SDS011;19550;42.872;25.494;2023-11-22T10:24:30;26.70;;;19.80;;
33184;SDS011;19550;42.872;25.494;2023-11-22T10:27:00;30.55;;;19.23;;
33184;SDS011;19550;42.872;25.494;2023-11-22T10:29:27;27.43;;;18.57;;
33184;SDS011;19550;42.872;25.494;2023-11-22T10:31:54;28.90;;;18.70;;
33184;SDS011;19550;42.872;25.494;2023-11-22T10:34:22;25.35;;;18.23;;
33184;SDS011;19550;42.872;25.494;2023-11-22T10:36:50;27.23;;;18.42;;
33184;SDS011;19550;42.872;25.494;2023-11-22T10:39:20;26.38;;;18.90;;
33184;SDS011;19550;42.872;25.494;2023-11-22T10:41:47;32.20;;;21.45;;
33184;SDS011;19550;42.872;25.494;2023-11-22T10:44:18;27.90;;;20.17;;
33184;SDS011;19550;42.872;25.494;2023-11-22T10:46:47;32.85;;;20.98;;
33184;SDS011;19550;42.872;25.494;2023-11-22T10:49:16;48.05;;;30.98;;
33184;SDS011;19550;42.872;25.494;2023-11-22T10:51:44;44.78;;;30.67;;
33184;SDS011;19550;42.872;25.494;2023-11-22T10:54:16;40.03;;;27.00;;
33184;SDS011;19550;42.872;25.494;2023-11-22T10:56:46;35.38;;;22.88;;
33184;SDS011;19550;42.872;25.494;2023-11-22T10:59:23;34.38;;;21.50;;
33184;SDS011;19550;42.872;25.494;2023-11-22T11:01:53;33.88;;;21.63;;
33184;SDS011;19550;42.872;25.494;2023-11-22T11:04:27;35.35;;;22.25;;
33184;SDS011;19550;42.872;25.494;2023-11-22T11:07:00;35.38;;;22.02;;
33184;SDS011;19550;42.872;25.494;2023-11-22T11:09:32;35.38;;;24.90;;
33184;SDS011;19550;42.872;25.494;2023-11-22T11:12:01;39.07;;;25.03;;
33184;SDS011;19550;42.872;25.494;2023-11-22T11:14:30;35.03;;;24.20;;
33184;SDS011;19550;42.872;25.494;2023-11-22T11:16:58;29.15;;;19.20;;
33184;SDS011;19550;42.872;25.494;2023-11-22T11:19:26;32.88;;;20.83;;
33184;SDS011;19550;42.872;25.494;2023-11-22T11:21:55;33.90;;;20.75;;
33184;SDS011;19550;42.872;25.494;2023-11-22T11:24:23;28.60;;;19.02;;
33184;SDS011;19550;42.872;25.494;2023-11-22T11:26:50;27.23;;;18.80;;
33184;SDS011;19550;42.872;25.494;2023-11-22T11:29:32;33.50;;;19.73;;
33184;SDS011;19550;42.872;25.494;2023-11-22T11:32:00;32.95;;;21.38;;
33184;SDS011;19550;42.872;25.494;2023-11-22T11:34:29;30.33;;;20.83;;
33184;SDS011;19550;42.872;25.494;2023-11-22T11:36:56;41.63;;;25.60;;
33184;SDS011;19550;42.872;25.494;2023-11-22T11:39:26;40.92;;;22.10;;
33184;SDS011;19550;42.872;25.494;2023-11-22T11:42:07;31.15;;;19.65;;
33184;SDS011;19550;42.872;25.494;2023-11-22T11:44:37;80.22;;;35.83;;
33184;SDS011;19550;42.872;25.494;2023-11-22T11:47:10;48.67;;;27.10;;
33184;SDS011;19550;42.872;25.494;2023-11-22T11:49:38;49.03;;;28.80;;
33184;SDS011;19550;42.872;25.494;2023-11-22T11:52:05;218.40;;;99.30;;
33184;SDS011;19550;42.872;25.494;2023-11-22T11:54:33;136.00;;;75.75;;
33184;SDS011;19550;42.872;25.494;2023-11-22T11:57:00;52.08;;;32.75;;
33184;SDS011;19550;42.872;25.494;2023-11-22T11:59:27;54.90;;;32.25;;
33184;SDS011;19550;42.872;25.494;2023-11-22T12:01:56;49.88;;;29.20;;
33184;SDS011;19550;42.872;25.494;2023-11-22T12:04:25;42.63;;;27.15;;
33184;SDS011;19550;42.872;25.494;2023-11-22T12:06:52;47.50;;;31.90;;
33184;SDS011;19550;42.872;25.494;2023-11-22T12:09:22;48.20;;;30.95;;
33184;SDS011;19550;42.872;25.494;2023-11-22T12:11:50;47.67;;;31.23;;
33184;SDS011;19550;42.872;25.494;2023-11-22T12:14:18;51.70;;;34.70;;
33184;SDS011;19550;42.872;25.494;2023-11-22T12:16:45;51.05;;;33.63;;
33184;SDS011;19550;42.872;25.494;2023-11-22T12:19:22;43.08;;;27.83;;
33184;SDS011;19550;42.872;25.494;2023-11-22T12:21:50;44.20;;;29.90;;
33184;SDS011;19550;42.872;25.494;2023-11-22T12:24:17;63.10;;;37.17;;
33184;SDS011;19550;42.872;25.494;2023-11-22T12:26:44;49.92;;;29.92;;
33184;SDS011;19550;42.872;25.494;2023-11-22T12:29:12;55.38;;;32.40;;
33184;SDS011;19550;42.872;25.494;2023-11-22T12:31:46;49.25;;;32.33;;
33184;SDS011;19550;42.872;25.494;2023-11-22T12:34:15;60.45;;;35.83;;
33184;SDS011;19550;42.872;25.494;2023-11-22T12:36:45;58.17;;;36.88;;
33184;SDS011;19550;42.872;25.494;2023-11-22T12:39:14;64.65;;;41.05;;
33184;SDS011;19550;42.872;25.494;2023-11-22T12:41:44;57.85;;;38.22;;
33184;SDS011;19550;42.872;25.494;2023-11-22T12:44:11;55.10;;;35.55;;
33184;SDS011;19550;42.872;25.494;2023-11-22T12:46:48;48.88;;;30.25;;
33184;SDS011;19550;42.872;25.494;2023-11-22T12:49:20;82.30;;;53.47;;
33184;SDS011;19550;42.872;25.494;2023-11-22T12:51:50;49.78;;;30.48;;
33184;SDS011;19550;42.872;25.494;2023-11-22T12:54:20;43.95;;;24.85;;
33184;SDS011;19550;42.872;25.494;2023-11-22T12:56:48;45.75;;;32.08;;
33184;SDS011;19550;42.872;25.494;2023-11-22T12:59:28;58.97;;;38.03;;
33184;SDS011;19550;42.872;25.494;2023-11-22T13:01:56;65.82;;;37.22;;
33184;SDS011;19550;42.872;25.494;2023-11-22T13:04:25;57.30;;;33.65;;
33184;SDS011;19550;42.872;25.494;2023-11-22T13:06:55;60.08;;;34.72;;
33184;SDS011;19550;42.872;25.494;2023-11-22T13:09:34;49.75;;;29.50;;
33184;SDS011;19550;42.872;25.494;2023-11-22T13:12:10;57.90;;;35.22;;
33184;SDS011;19550;42.872;25.494;2023-11-22T13:14:39;55.85;;;33.45;;
33184;SDS011;19550;42.872;25.494;2023-11-22T13:17:06;55.55;;;30.70;;
33184;SDS011;19550;42.872;25.494;2023-11-22T13:19:36;52.50;;;32.58;;
33184;SDS011;19550;42.872;25.494;2023-11-22T13:22:08;336.58;;;205.93;;
33184;SDS011;19550;42.872;25.494;2023-11-22T13:24:37;84.03;;;51.97;;
33184;SDS011;19550;42.872;25.494;2023-11-22T13:27:20;62.70;;;39.05;;
33184;SDS011;19550;42.872;25.494;2023-11-22T13:29:51;66.18;;;39.75;;
33184;SDS011;19550;42.872;25.494;2023-11-22T13:32:18;93.38;;;62.28;;
33184;SDS011;19550;42.872;25.494;2023-11-22T13:35:03;54.50;;;34.63;;
33184;SDS011;19550;42.872;25.494;2023-11-22T13:40:26;83.05;;;47.83;;
33184;SDS011;19550;42.872;25.494;2023-11-22T13:42:56;70.78;;;42.42;;
33184;SDS011;19550;42.872;25.494;2023-11-22T13:45:24;96.82;;;62.65;;
33184;SDS011;19550;42.872;25.494;2023-11-22T13:47:56;104.13;;;63.45;;
33184;SDS011;19550;42.872;25.494;2023-11-22T13:51:04;56.70;;;35.38;;
33184;SDS011;19550;42.872;25.494;2023-11-22T13:53:56;55.47;;;32.35;;
33184;SDS011;19550;42.872;25.494;2023-11-22T13:56:35;56.08;;;33.45;;
33184;SDS011;19550;42.872;25.494;2023-11-22T13:59:03;59.58;;;36.65;;
33184;SDS011;19550;42.872;25.494;2023-11-22T14:01:31;58.00;;;35.45;;
33184;SDS011;19550;42.872;25.494;2023-11-22T14:03:59;54.65;;;32.67;;
33184;SDS011;19550;42.872;25.494;2023-11-22T14:06:32;57.75;;;34.65;;
33184;SDS011;19550;42.872;25.494;2023-11-22T14:09:07;60.38;;;33.10;;
33184;SDS011;19550;42.872;25.494;2023-11-22T14:11:45;59.30;;;34.97;;
33184;SDS011;19550;42.872;25.494;2023-11-22T14:14:20;58.65;;;30.42;;
33184;SDS011;19550;42.872;25.494;2023-11-22T14:17:06;66.40;;;40.45;;
33184;SDS011;19550;42.872;25.494;2023-11-22T14:19:35;68.45;;;38.60;;
33184;SDS011;19550;42.872;25.494;2023-11-22T14:22:26;68.50;;;36.05;;
33184;SDS011;19550;42.872;25.494;2023-11-22T14:25:14;310.52;;;147.13;;
33184;SDS011;19550;42.872;25.494;2023-11-22T14:27:41;83.43;;;48.17;;
33184;SDS011;19550;42.872;25.494;2023-11-22T14:30:14;135.00;;;73.93;;